sensor_id;sensor_type;location;lat;lon;timestamp;temperature;humidity
36458;DHT22;22480;50.546;12.292;2023-08-17T00:01:43;17.70;99.90
36458;DHT22;22480;50.546;12.292;2023-08-17T00:04:10;17.60;99.90
36458;DHT22;22480;50.546;12.292;2023-08-17T00:06:35;17.60;99.90
36458;DHT22;22480;50.546;12.292;2023-08-17T00:09:01;17.70;99.90
36458;DHT22;22480;50.546;12.292;2023-08-17T00:11:27;17.70;99.90
36458;DHT22;22480;50.546;12.292;2023-08-17T00:13:52;17.60;99.90
36458;DHT22;22480;50.546;12.292;2023-08-17T00:16:18;17.60;99.90
36458;DHT22;22480;50.546;12.292;2023-08-17T00:18:44;17.60;99.90
36458;DHT22;22480;50.546;12.292;2023-08-17T00:21:09;17.60;99.90
36458;DHT22;22480;50.546;12.292;2023-08-17T00:23:35;17.50;99.90
36458;DHT22;22480;50.546;12.292;2023-08-17T00:26:01;17.50;99.90
36458;DHT22;22480;50.546;12.292;2023-08-17T00:28:27;17.60;99.90
36458;DHT22;22480;50.546;12.292;2023-08-17T00:30:52;17.60;99.90
36458;DHT22;22480;50.546;12.292;2023-08-17T00:33:18;17.60;99.90
36458;DHT22;22480;50.546;12.292;2023-08-17T00:35:44;17.50;99.90
36458;DHT22;22480;50.546;12.292;2023-08-17T00:38:12;17.60;99.90
36458;DHT22;22480;50.546;12.292;2023-08-17T00:40:38;17.60;99.90
36458;DHT22;22480;50.546;12.292;2023-08-17T00:43:07;17.50;99.90
36458;DHT22;22480;50.546;12.292;2023-08-17T00:45:33;17.50;99.90
36458;DHT22;22480;50.546;12.292;2023-08-17T00:47:59;17.50;99.90
36458;DHT22;22480;50.546;12.292;2023-08-17T00:50:26;17.50;99.90
36458;DHT22;22480;50.546;12.292;2023-08-17T00:52:53;17.50;99.90
36458;DHT22;22480;50.546;12.292;2023-08-17T00:55:20;17.60;99.90
36458;DHT22;22480;50.546;12.292;2023-08-17T00:57:46;17.60;99.90
36458;DHT22;22480;50.546;12.292;2023-08-17T01:00:13;17.70;99.90
36458;DHT22;22480;50.546;12.292;2023-08-17T01:02:42;17.60;99.90
36458;DHT22;22480;50.546;12.292;2023-08-17T01:05:08;17.60;99.90
36458;DHT22;22480;50.546;12.292;2023-08-17T01:07:34;17.50;99.90
36458;DHT22;22480;50.546;12.292;2023-08-17T01:10:00;17.50;99.90
36458;DHT22;22480;50.546;12.292;2023-08-17T01:12:31;17.50;99.90
36458;DHT22;22480;50.546;12.292;2023-08-17T01:17:31;17.40;99.90
36458;DHT22;22480;50.546;12.292;2023-08-17T01:19:58;17.30;99.90
36458;DHT22;22480;50.546;12.292;2023-08-17T01:22:26;17.30;99.90
36458;DHT22;22480;50.546;12.292;2023-08-17T01:24:55;17.30;99.90
36458;DHT22;22480;50.546;12.292;2023-08-17T01:27:24;17.20;99.90
36458;DHT22;22480;50.546;12.292;2023-08-17T01:29:51;17.30;99.90
36458;DHT22;22480;50.546;12.292;2023-08-17T01:32:27;17.30;99.90
36458;DHT22;22480;50.546;12.292;2023-08-17T01:35:01;17.40;99.90
36458;DHT22;22480;50.546;12.292;2023-08-17T01:37:31;17.50;99.90
36458;DHT22;22480;50.546;12.292;2023-08-17T01:39:59;17.50;99.90
36458;DHT22;22480;50.546;12.292;2023-08-17T01:42:25;17.60;99.90
36458;DHT22;22480;50.546;12.292;2023-08-17T01:44:52;17.50;99.90
36458;DHT22;22480;50.546;12.292;2023-08-17T01:47:21;17.50;99.90
36458;DHT22;22480;50.546;12.292;2023-08-17T01:49:47;17.40;99.90
36458;DHT22;22480;50.546;12.292;2023-08-17T01:52:13;17.40;99.90
36458;DHT22;22480;50.546;12.292;2023-08-17T01:54:39;17.40;99.90
36458;DHT22;22480;50.546;12.292;2023-08-17T01:57:05;17.40;99.90
36458;DHT22;22480;50.546;12.292;2023-08-17T01:59:31;17.30;99.90
36458;DHT22;22480;50.546;12.292;2023-08-17T02:01:56;17.30;99.90
36458;DHT22;22480;50.546;12.292;2023-08-17T02:04:22;17.20;99.90
36458;DHT22;22480;50.546;12.292;2023-08-17T02:06:48;17.20;99.90
36458;DHT22;22480;50.546;12.292;2023-08-17T02:09:13;17.10;99.90
36458;DHT22;22480;50.546;12.292;2023-08-17T02:11:39;17.00;99.90
36458;DHT22;22480;50.546;12.292;2023-08-17T02:14:05;17.00;99.90
36458;DHT22;22480;50.546;12.292;2023-08-17T02:16:30;16.90;99.90
36458;DHT22;22480;50.546;12.292;2023-08-17T02:18:56;16.90;99.90
36458;DHT22;22480;50.546;12.292;2023-08-17T02:21:24;17.00;99.90
36458;DHT22;22480;50.546;12.292;2023-08-17T02:23:50;17.00;99.90
36458;DHT22;22480;50.546;12.292;2023-08-17T02:26:15;17.20;99.90
36458;DHT22;22480;50.546;12.292;2023-08-17T02:28:41;17.60;99.90
36458;DHT22;22480;50.546;12.292;2023-08-17T02:31:07;17.80;99.90
36458;DHT22;22480;50.546;12.292;2023-08-17T02:33:33;18.00;99.90
36458;DHT22;22480;50.546;12.292;2023-08-17T02:35:59;18.00;99.90
36458;DHT22;22480;50.546;12.292;2023-08-17T02:38:25;18.10;99.90
36458;DHT22;22480;50.546;12.292;2023-08-17T02:40:50;18.00;99.90
36458;DHT22;22480;50.546;12.292;2023-08-17T02:43:16;18.00;99.90
36458;DHT22;22480;50.546;12.292;2023-08-17T02:45:43;17.90;99.90
36458;DHT22;22480;50.546;12.292;2023-08-17T02:48:09;17.90;99.90
36458;DHT22;22480;50.546;12.292;2023-08-17T02:50:35;18.00;99.90
36458;DHT22;22480;50.546;12.292;2023-08-17T02:53:00;18.00;99.90
36458;DHT22;22480;50.546;12.292;2023-08-17T02:55:27;18.10;99.90
36458;DHT22;22480;50.546;12.292;2023-08-17T02:57:53;18.10;99.90
36458;DHT22;22480;50.546;12.292;2023-08-17T03:00:18;18.20;99.90
36458;DHT22;22480;50.546;12.292;2023-08-17T03:02:45;18.20;99.90
36458;DHT22;22480;50.546;12.292;2023-08-17T03:05:10;18.20;99.90
36458;DHT22;22480;50.546;12.292;2023-08-17T03:07:36;18.30;99.90
36458;DHT22;22480;50.546;12.292;2023-08-17T03:10:02;18.30;99.90
36458;DHT22;22480;50.546;12.292;2023-08-17T03:12:27;18.30;99.90
36458;DHT22;22480;50.546;12.292;2023-08-17T03:14:53;18.30;99.90
36458;DHT22;22480;50.546;12.292;2023-08-17T03:17:19;18.30;99.90
36458;DHT22;22480;50.546;12.292;2023-08-17T03:19:45;18.30;99.90
36458;DHT22;22480;50.546;12.292;2023-08-17T03:22:10;18.30;99.90
36458;DHT22;22480;50.546;12.292;2023-08-17T03:24:36;18.20;99.90
36458;DHT22;22480;50.546;12.292;2023-08-17T03:27:02;18.20;99.90
36458;DHT22;22480;50.546;12.292;2023-08-17T03:29:27;18.20;99.90
36458;DHT22;22480;50.546;12.292;2023-08-17T03:31:54;18.20;99.90
36458;DHT22;22480;50.546;12.292;2023-08-17T03:34:20;18.20;99.90
36458;DHT22;22480;50.546;12.292;2023-08-17T03:36:45;18.20;99.90
36458;DHT22;22480;50.546;12.292;2023-08-17T03:39:11;18.20;99.90
36458;DHT22;22480;50.546;12.292;2023-08-17T03:41:37;18.20;99.90
36458;DHT22;22480;50.546;12.292;2023-08-17T03:44:03;18.20;99.90
36458;DHT22;22480;50.546;12.292;2023-08-17T03:46:31;18.10;99.90
36458;DHT22;22480;50.546;12.292;2023-08-17T03:48:57;18.10;99.90
36458;DHT22;22480;50.546;12.292;2023-08-17T03:51:23;18.10;99.90
36458;DHT22;22480;50.546;12.292;2023-08-17T03:53:49;18.10;99.90
36458;DHT22;22480;50.546;12.292;2023-08-17T03:56:17;18.10;99.90
36458;DHT22;22480;50.546;12.292;2023-08-17T03:58:42;18.10;99.90
36458;DHT22;22480;50.546;12.292;2023-08-17T04:01:09;17.90;99.90
36458;DHT22;22480;50.546;12.292;2023-08-17T04:03:39;17.80;99.90
36458;DHT22;22480;50.546;12.292;2023-08-17T04:06:05;17.80;99.90
36458;DHT22;22480;50.546;12.292;2023-08-17T04:08:38;17.70;99.90
36458;DHT22;22480;50.546;12.292;2023-08-17T04:11:05;17.60;99.90
36458;DHT22;22480;50.546;12.292;2023-08-17T04:13:31;17.60;99.90
36458;DHT22;22480;50.546;12.292;2023-08-17T04:15:57;17.60;99.90
36458;DHT22;22480;50.546;12.292;2023-08-17T04:18:23;17.50;99.90
36458;DHT22;22480;50.546;12.292;2023-08-17T04:20:49;17.60;99.90
36458;DHT22;22480;50.546;12.292;2023-08-17T04:23:16;17.70;99.90
36458;DHT22;22480;50.546;12.292;2023-08-17T04:25:43;17.70;99.90
36458;DHT22;22480;50.546;12.292;2023-08-17T04:28:09;17.70;99.90
36458;DHT22;22480;50.546;12.292;2023-08-17T04:30:34;17.60;99.90
36458;DHT22;22480;50.546;12.292;2023-08-17T04:33:02;17.70;99.90
36458;DHT22;22480;50.546;12.292;2023-08-17T04:35:28;17.70;99.90
36458;DHT22;22480;50.546;12.292;2023-08-17T04:37:54;17.70;99.90
36458;DHT22;22480;50.546;12.292;2023-08-17T04:40:21;17.70;99.90
36458;DHT22;22480;50.546;12.292;2023-08-17T04:42:48;17.70;99.90
36458;DHT22;22480;50.546;12.292;2023-08-17T04:45:14;17.80;99.90
36458;DHT22;22480;50.546;12.292;2023-08-17T04:47:42;17.90;99.90
36458;DHT22;22480;50.546;12.292;2023-08-17T04:50:09;18.00;99.90
36458;DHT22;22480;50.546;12.292;2023-08-17T04:52:34;18.10;99.90
36458;DHT22;22480;50.546;12.292;2023-08-17T04:55:01;18.20;99.90
36458;DHT22;22480;50.546;12.292;2023-08-17T04:57:29;18.20;99.90
36458;DHT22;22480;50.546;12.292;2023-08-17T04:59:55;18.30;99.90
36458;DHT22;22480;50.546;12.292;2023-08-17T05:02:20;18.40;99.90
36458;DHT22;22480;50.546;12.292;2023-08-17T05:04:47;18.50;99.90
36458;DHT22;22480;50.546;12.292;2023-08-17T05:07:12;18.60;99.90
36458;DHT22;22480;50.546;12.292;2023-08-17T05:09:38;18.60;99.90
36458;DHT22;22480;50.546;12.292;2023-08-17T05:12:04;18.60;99.90
36458;DHT22;22480;50.546;12.292;2023-08-17T05:14:30;18.70;99.90
36458;DHT22;22480;50.546;12.292;2023-08-17T05:16:56;18.80;99.90
36458;DHT22;22480;50.546;12.292;2023-08-17T05:19:23;18.80;99.90
36458;DHT22;22480;50.546;12.292;2023-08-17T05:21:49;18.80;99.90
36458;DHT22;22480;50.546;12.292;2023-08-17T05:24:16;18.80;99.90
36458;DHT22;22480;50.546;12.292;2023-08-17T05:26:44;18.80;99.90
36458;DHT22;22480;50.546;12.292;2023-08-17T05:29:11;19.00;99.90
36458;DHT22;22480;50.546;12.292;2023-08-17T05:31:38;19.60;99.90
36458;DHT22;22480;50.546;12.292;2023-08-17T05:34:03;20.30;99.90
36458;DHT22;22480;50.546;12.292;2023-08-17T05:36:30;21.20;99.90
36458;DHT22;22480;50.546;12.292;2023-08-17T05:38:55;22.10;99.90
36458;DHT22;22480;50.546;12.292;2023-08-17T05:41:21;22.70;99.90
36458;DHT22;22480;50.546;12.292;2023-08-17T05:43:48;23.10;99.90
36458;DHT22;22480;50.546;12.292;2023-08-17T05:46:14;23.10;99.90
36458;DHT22;22480;50.546;12.292;2023-08-17T05:48:40;22.80;99.90
36458;DHT22;22480;50.546;12.292;2023-08-17T05:51:06;22.80;99.90
36458;DHT22;22480;50.546;12.292;2023-08-17T05:53:32;22.70;99.90
36458;DHT22;22480;50.546;12.292;2023-08-17T05:55:58;22.90;99.90
36458;DHT22;22480;50.546;12.292;2023-08-17T05:58:24;23.10;99.90
36458;DHT22;22480;50.546;12.292;2023-08-17T06:00:50;23.20;99.90
36458;DHT22;22480;50.546;12.292;2023-08-17T06:03:15;23.10;99.90
36458;DHT22;22480;50.546;12.292;2023-08-17T06:05:41;22.80;99.90
36458;DHT22;22480;50.546;12.292;2023-08-17T06:08:07;22.30;99.90
36458;DHT22;22480;50.546;12.292;2023-08-17T06:10:32;22.00;99.90
36458;DHT22;22480;50.546;12.292;2023-08-17T06:12:58;21.70;99.90
36458;DHT22;22480;50.546;12.292;2023-08-17T06:15:24;21.70;99.90
36458;DHT22;22480;50.546;12.292;2023-08-17T06:17:50;21.50;99.90
36458;DHT22;22480;50.546;12.292;2023-08-17T06:20:17;21.50;99.90
36458;DHT22;22480;50.546;12.292;2023-08-17T06:22:44;21.40;99.90
36458;DHT22;22480;50.546;12.292;2023-08-17T06:25:10;21.40;99.90
36458;DHT22;22480;50.546;12.292;2023-08-17T06:27:36;21.30;99.90
36458;DHT22;22480;50.546;12.292;2023-08-17T06:30:03;21.20;99.90
36458;DHT22;22480;50.546;12.292;2023-08-17T06:32:30;21.30;99.90
36458;DHT22;22480;50.546;12.292;2023-08-17T06:34:56;21.40;99.90
36458;DHT22;22480;50.546;12.292;2023-08-17T06:37:22;21.50;99.90
36458;DHT22;22480;50.546;12.292;2023-08-17T06:39:48;21.60;99.90
36458;DHT22;22480;50.546;12.292;2023-08-17T06:42:14;21.80;99.90
36458;DHT22;22480;50.546;12.292;2023-08-17T06:44:40;22.00;99.90
36458;DHT22;22480;50.546;12.292;2023-08-17T06:47:06;22.20;99.90
36458;DHT22;22480;50.546;12.292;2023-08-17T06:49:31;22.30;99.90
36458;DHT22;22480;50.546;12.292;2023-08-17T06:51:57;22.60;99.90
36458;DHT22;22480;50.546;12.292;2023-08-17T06:54:23;22.70;99.90
36458;DHT22;22480;50.546;12.292;2023-08-17T06:56:48;22.90;99.90
36458;DHT22;22480;50.546;12.292;2023-08-17T06:59:14;23.20;99.90
36458;DHT22;22480;50.546;12.292;2023-08-17T07:01:40;23.40;99.90
36458;DHT22;22480;50.546;12.292;2023-08-17T07:04:06;24.00;99.90
36458;DHT22;22480;50.546;12.292;2023-08-17T07:06:31;24.50;99.90
36458;DHT22;22480;50.546;12.292;2023-08-17T07:08:57;25.00;99.90
36458;DHT22;22480;50.546;12.292;2023-08-17T07:11:23;25.30;99.90
36458;DHT22;22480;50.546;12.292;2023-08-17T07:13:48;25.40;99.90
36458;DHT22;22480;50.546;12.292;2023-08-17T07:16:14;25.10;99.90
36458;DHT22;22480;50.546;12.292;2023-08-17T07:18:40;25.10;99.90
36458;DHT22;22480;50.546;12.292;2023-08-17T07:21:06;25.40;99.90
36458;DHT22;22480;50.546;12.292;2023-08-17T07:23:31;25.60;99.90
36458;DHT22;22480;50.546;12.292;2023-08-17T07:25:57;25.60;99.90
36458;DHT22;22480;50.546;12.292;2023-08-17T07:28:23;25.80;99.90
36458;DHT22;22480;50.546;12.292;2023-08-17T07:30:49;26.00;99.90
36458;DHT22;22480;50.546;12.292;2023-08-17T07:33:14;26.00;99.90
36458;DHT22;22480;50.546;12.292;2023-08-17T07:35:40;26.20;99.90
36458;DHT22;22480;50.546;12.292;2023-08-17T07:38:06;26.70;99.90
36458;DHT22;22480;50.546;12.292;2023-08-17T07:40:31;27.30;99.90
36458;DHT22;22480;50.546;12.292;2023-08-17T07:42:57;27.60;99.90
36458;DHT22;22480;50.546;12.292;2023-08-17T07:45:23;28.20;99.90
36458;DHT22;22480;50.546;12.292;2023-08-17T07:47:48;28.80;99.90
36458;DHT22;22480;50.546;12.292;2023-08-17T07:50:14;29.20;99.90
36458;DHT22;22480;50.546;12.292;2023-08-17T07:52:40;29.40;99.90
36458;DHT22;22480;50.546;12.292;2023-08-17T07:55:06;29.60;99.90
36458;DHT22;22480;50.546;12.292;2023-08-17T07:57:31;30.10;96.40
36458;DHT22;22480;50.546;12.292;2023-08-17T07:59:57;30.50;99.90
36458;DHT22;22480;50.546;12.292;2023-08-17T08:02:23;30.90;97.90
36458;DHT22;22480;50.546;12.292;2023-08-17T08:04:49;31.40;94.80
36458;DHT22;22480;50.546;12.292;2023-08-17T08:07:14;31.80;97.70
36458;DHT22;22480;50.546;12.292;2023-08-17T08:09:40;31.90;92.00
36458;DHT22;22480;50.546;12.292;2023-08-17T08:12:06;31.70;91.00
36458;DHT22;22480;50.546;12.292;2023-08-17T08:14:34;31.10;92.30
36458;DHT22;22480;50.546;12.292;2023-08-17T08:16:59;30.60;97.30
36458;DHT22;22480;50.546;12.292;2023-08-17T08:19:25;30.50;99.00
36458;DHT22;22480;50.546;12.292;2023-08-17T08:21:51;30.40;99.90
36458;DHT22;22480;50.546;12.292;2023-08-17T08:24:16;30.70;99.90
36458;DHT22;22480;50.546;12.292;2023-08-17T08:26:42;31.30;95.20
36458;DHT22;22480;50.546;12.292;2023-08-17T08:29:08;31.90;88.50
36458;DHT22;22480;50.546;12.292;2023-08-17T08:31:34;32.30;91.20
36458;DHT22;22480;50.546;12.292;2023-08-17T08:33:59;32.60;91.50
36458;DHT22;22480;50.546;12.292;2023-08-17T08:36:25;33.50;83.90
36458;DHT22;22480;50.546;12.292;2023-08-17T08:38:51;34.20;71.90
36458;DHT22;22480;50.546;12.292;2023-08-17T08:41:17;34.30;71.60
36458;DHT22;22480;50.546;12.292;2023-08-17T08:43:43;34.20;72.50
36458;DHT22;22480;50.546;12.292;2023-08-17T08:46:09;33.40;70.00
36458;DHT22;22480;50.546;12.292;2023-08-17T08:48:38;32.70;71.00
36458;DHT22;22480;50.546;12.292;2023-08-17T08:51:08;32.10;75.00
36458;DHT22;22480;50.546;12.292;2023-08-17T08:53:38;31.50;82.10
36458;DHT22;22480;50.546;12.292;2023-08-17T08:56:11;31.50;83.40
36458;DHT22;22480;50.546;12.292;2023-08-17T08:58:38;31.80;84.30
36458;DHT22;22480;50.546;12.292;2023-08-17T09:01:06;32.10;76.10
36458;DHT22;22480;50.546;12.292;2023-08-17T09:03:33;32.40;80.30
36458;DHT22;22480;50.546;12.292;2023-08-17T09:05:59;32.70;81.10
36458;DHT22;22480;50.546;12.292;2023-08-17T09:08:29;32.80;78.40
36458;DHT22;22480;50.546;12.292;2023-08-17T09:10:55;32.80;78.60
36458;DHT22;22480;50.546;12.292;2023-08-17T09:13:20;32.40;73.90
36458;DHT22;22480;50.546;12.292;2023-08-17T09:15:46;31.90;73.90
36458;DHT22;22480;50.546;12.292;2023-08-17T09:18:12;31.90;79.10
36458;DHT22;22480;50.546;12.292;2023-08-17T09:23:10;32.00;75.00
36458;DHT22;22480;50.546;12.292;2023-08-17T09:25:39;32.60;76.00
36458;DHT22;22480;50.546;12.292;2023-08-17T09:28:10;33.70;71.90
36458;DHT22;22480;50.546;12.292;2023-08-17T09:33:28;33.60;67.90
36458;DHT22;22480;50.546;12.292;2023-08-17T09:35:55;33.60;68.40
36458;DHT22;22480;50.546;12.292;2023-08-17T09:38:21;34.20;71.20
36458;DHT22;22480;50.546;12.292;2023-08-17T09:40:48;35.00;72.30
36458;DHT22;22480;50.546;12.292;2023-08-17T09:43:14;35.30;64.90
36458;DHT22;22480;50.546;12.292;2023-08-17T09:45:40;35.10;66.10
36458;DHT22;22480;50.546;12.292;2023-08-17T09:48:07;35.70;63.90
36458;DHT22;22480;50.546;12.292;2023-08-17T09:50:36;36.20;64.90
36458;DHT22;22480;50.546;12.292;2023-08-17T09:53:02;36.40;63.40
36458;DHT22;22480;50.546;12.292;2023-08-17T09:55:31;36.00;64.00
36458;DHT22;22480;50.546;12.292;2023-08-17T09:58:00;36.20;63.30
36458;DHT22;22480;50.546;12.292;2023-08-17T10:00:27;35.70;63.60
36458;DHT22;22480;50.546;12.292;2023-08-17T10:02:53;36.20;63.20
36458;DHT22;22480;50.546;12.292;2023-08-17T10:05:20;36.20;62.30
36458;DHT22;22480;50.546;12.292;2023-08-17T10:07:54;37.00;63.00
36458;DHT22;22480;50.546;12.292;2023-08-17T10:10:26;37.10;60.50
36458;DHT22;22480;50.546;12.292;2023-08-17T10:13:01;37.70;58.30
36458;DHT22;22480;50.546;12.292;2023-08-17T10:15:34;37.80;58.50
36458;DHT22;22480;50.546;12.292;2023-08-17T10:21:23;37.10;58.80
36458;DHT22;22480;50.546;12.292;2023-08-17T10:23:50;36.60;61.30
36458;DHT22;22480;50.546;12.292;2023-08-17T10:26:16;36.50;63.50
36458;DHT22;22480;50.546;12.292;2023-08-17T10:28:44;36.50;61.10
36458;DHT22;22480;50.546;12.292;2023-08-17T10:31:10;36.70;62.00
36458;DHT22;22480;50.546;12.292;2023-08-17T10:33:36;37.00;62.20
36458;DHT22;22480;50.546;12.292;2023-08-17T10:36:04;37.70;60.00
36458;DHT22;22480;50.546;12.292;2023-08-17T10:38:30;38.10;61.50
36458;DHT22;22480;50.546;12.292;2023-08-17T10:41:13;38.80;60.40
36458;DHT22;22480;50.546;12.292;2023-08-17T10:43:56;39.00;57.10
36458;DHT22;22480;50.546;12.292;2023-08-17T10:46:32;39.60;57.10
36458;DHT22;22480;50.546;12.292;2023-08-17T10:49:02;40.00;56.50
36458;DHT22;22480;50.546;12.292;2023-08-17T10:51:29;40.10;57.30
36458;DHT22;22480;50.546;12.292;2023-08-17T10:53:58;39.60;55.10
36458;DHT22;22480;50.546;12.292;2023-08-17T10:56:27;39.00;57.60
36458;DHT22;22480;50.546;12.292;2023-08-17T10:58:53;38.20;58.60
36458;DHT22;22480;50.546;12.292;2023-08-17T11:01:40;36.90;58.30
36458;DHT22;22480;50.546;12.292;2023-08-17T11:04:16;36.30;59.80
36458;DHT22;22480;50.546;12.292;2023-08-17T11:06:45;35.30;61.80
36458;DHT22;22480;50.546;12.292;2023-08-17T11:09:11;34.50;64.10
36458;DHT22;22480;50.546;12.292;2023-08-17T11:11:37;35.20;64.70
36458;DHT22;22480;50.546;12.292;2023-08-17T11:14:03;35.80;62.50
36458;DHT22;22480;50.546;12.292;2023-08-17T11:16:29;35.60;62.60
36458;DHT22;22480;50.546;12.292;2023-08-17T11:18:55;35.10;64.20
36458;DHT22;22480;50.546;12.292;2023-08-17T11:21:24;34.40;64.20
36458;DHT22;22480;50.546;12.292;2023-08-17T11:23:50;33.60;67.50
36458;DHT22;22480;50.546;12.292;2023-08-17T11:26:17;33.00;67.10
36458;DHT22;22480;50.546;12.292;2023-08-17T11:28:43;32.40;69.00
36458;DHT22;22480;50.546;12.292;2023-08-17T11:31:11;32.70;69.40
36458;DHT22;22480;50.546;12.292;2023-08-17T11:33:39;34.00;67.40
36458;DHT22;22480;50.546;12.292;2023-08-17T11:36:07;35.20;63.80
36458;DHT22;22480;50.546;12.292;2023-08-17T11:38:34;36.10;61.40
36458;DHT22;22480;50.546;12.292;2023-08-17T11:41:01;36.10;61.80
36458;DHT22;22480;50.546;12.292;2023-08-17T11:43:28;36.30;61.50
36458;DHT22;22480;50.546;12.292;2023-08-17T11:45:57;35.60;62.80
36458;DHT22;22480;50.546;12.292;2023-08-17T11:48:24;35.00;64.20
36458;DHT22;22480;50.546;12.292;2023-08-17T11:50:50;34.70;65.10
36458;DHT22;22480;50.546;12.292;2023-08-17T11:53:16;34.40;63.70
36458;DHT22;22480;50.546;12.292;2023-08-17T11:55:42;34.00;65.60
36458;DHT22;22480;50.546;12.292;2023-08-17T11:58:07;34.60;64.70
36458;DHT22;22480;50.546;12.292;2023-08-17T12:00:41;35.10;61.70
36458;DHT22;22480;50.546;12.292;2023-08-17T12:03:07;34.80;62.80
36458;DHT22;22480;50.546;12.292;2023-08-17T12:05:33;34.50;62.40
36458;DHT22;22480;50.546;12.292;2023-08-17T12:07:59;34.90;63.00
36458;DHT22;22480;50.546;12.292;2023-08-17T12:10:29;35.30;62.00
36458;DHT22;22480;50.546;12.292;2023-08-17T12:13:00;35.00;62.00
36458;DHT22;22480;50.546;12.292;2023-08-17T12:15:31;34.80;62.80
36458;DHT22;22480;50.546;12.292;2023-08-17T12:17:59;35.30;63.20
36458;DHT22;22480;50.546;12.292;2023-08-17T12:20:25;36.50;61.50
36458;DHT22;22480;50.546;12.292;2023-08-17T12:22:51;37.40;59.20
36458;DHT22;22480;50.546;12.292;2023-08-17T12:25:20;37.50;60.30
36458;DHT22;22480;50.546;12.292;2023-08-17T12:27:47;37.90;57.00
36458;DHT22;22480;50.546;12.292;2023-08-17T12:30:24;38.80;56.30
36458;DHT22;22480;50.546;12.292;2023-08-17T12:32:50;39.00;56.00
36458;DHT22;22480;50.546;12.292;2023-08-17T12:35:15;38.30;55.90
36458;DHT22;22480;50.546;12.292;2023-08-17T12:37:41;37.00;56.30
36458;DHT22;22480;50.546;12.292;2023-08-17T12:40:07;35.70;57.50
36458;DHT22;22480;50.546;12.292;2023-08-17T12:42:33;34.40;61.80
36458;DHT22;22480;50.546;12.292;2023-08-17T12:44:59;34.20;61.60
36458;DHT22;22480;50.546;12.292;2023-08-17T12:47:25;34.20;61.10
36458;DHT22;22480;50.546;12.292;2023-08-17T12:49:50;34.10;61.20
36458;DHT22;22480;50.546;12.292;2023-08-17T12:52:16;33.80;62.10
36458;DHT22;22480;50.546;12.292;2023-08-17T12:54:42;33.60;62.90
36458;DHT22;22480;50.546;12.292;2023-08-17T12:57:07;33.40;63.30
36458;DHT22;22480;50.546;12.292;2023-08-17T12:59:33;33.20;63.90
36458;DHT22;22480;50.546;12.292;2023-08-17T13:01:59;33.20;66.60
36458;DHT22;22480;50.546;12.292;2023-08-17T13:04:25;33.00;65.60
36458;DHT22;22480;50.546;12.292;2023-08-17T13:06:51;32.90;64.20
36458;DHT22;22480;50.546;12.292;2023-08-17T13:09:17;32.70;65.90
36458;DHT22;22480;50.546;12.292;2023-08-17T13:11:45;32.30;66.30
36458;DHT22;22480;50.546;12.292;2023-08-17T13:14:12;32.00;67.40
36458;DHT22;22480;50.546;12.292;2023-08-17T13:16:38;31.70;67.80
36458;DHT22;22480;50.546;12.292;2023-08-17T13:19:04;31.30;70.30
36458;DHT22;22480;50.546;12.292;2023-08-17T13:21:29;30.90;70.00
36458;DHT22;22480;50.546;12.292;2023-08-17T13:23:55;30.50;71.10
36458;DHT22;22480;50.546;12.292;2023-08-17T13:26:24;30.20;73.30
36458;DHT22;22480;50.546;12.292;2023-08-17T13:28:50;29.80;78.50
36458;DHT22;22480;50.546;12.292;2023-08-17T13:31:15;29.50;81.70
36458;DHT22;22480;50.546;12.292;2023-08-17T13:33:41;29.00;91.20
36458;DHT22;22480;50.546;12.292;2023-08-17T13:36:07;28.50;95.20
36458;DHT22;22480;50.546;12.292;2023-08-17T13:38:32;28.10;99.90
36458;DHT22;22480;50.546;12.292;2023-08-17T13:40:58;27.50;99.90
36458;DHT22;22480;50.546;12.292;2023-08-17T13:43:24;26.30;99.90
36458;DHT22;22480;50.546;12.292;2023-08-17T13:45:50;24.60;99.90
36458;DHT22;22480;50.546;12.292;2023-08-17T13:48:15;23.20;99.90
36458;DHT22;22480;50.546;12.292;2023-08-17T13:50:41;22.20;99.90
36458;DHT22;22480;50.546;12.292;2023-08-17T13:53:07;21.30;99.90
36458;DHT22;22480;50.546;12.292;2023-08-17T13:55:33;20.20;99.90
36458;DHT22;22480;50.546;12.292;2023-08-17T13:57:58;19.70;99.90
36458;DHT22;22480;50.546;12.292;2023-08-17T14:00:25;18.80;99.90
36458;DHT22;22480;50.546;12.292;2023-08-17T14:02:52;18.30;99.90
36458;DHT22;22480;50.546;12.292;2023-08-17T14:05:18;18.30;99.90
36458;DHT22;22480;50.546;12.292;2023-08-17T14:07:44;18.20;99.90
36458;DHT22;22480;50.546;12.292;2023-08-17T14:10:10;18.10;99.90
36458;DHT22;22480;50.546;12.292;2023-08-17T14:12:35;18.10;99.90
36458;DHT22;22480;50.546;12.292;2023-08-17T14:15:01;18.00;99.90
36458;DHT22;22480;50.546;12.292;2023-08-17T14:17:27;18.20;99.90
36458;DHT22;22480;50.546;12.292;2023-08-17T14:19:53;18.20;99.90
36458;DHT22;22480;50.546;12.292;2023-08-17T14:22:20;18.40;99.90
36458;DHT22;22480;50.546;12.292;2023-08-17T14:24:45;18.70;99.90
36458;DHT22;22480;50.546;12.292;2023-08-17T14:27:11;19.10;99.90
36458;DHT22;22480;50.546;12.292;2023-08-17T14:29:38;19.50;99.90
36458;DHT22;22480;50.546;12.292;2023-08-17T14:32:04;20.60;99.90
36458;DHT22;22480;50.546;12.292;2023-08-17T14:34:30;21.30;99.90
36458;DHT22;22480;50.546;12.292;2023-08-17T14:36:56;21.20;99.90
36458;DHT22;22480;50.546;12.292;2023-08-17T14:39:21;20.90;99.90
36458;DHT22;22480;50.546;12.292;2023-08-17T14:41:47;20.80;99.90
36458;DHT22;22480;50.546;12.292;2023-08-17T14:44:13;21.00;99.90
36458;DHT22;22480;50.546;12.292;2023-08-17T14:46:38;21.50;99.90
36458;DHT22;22480;50.546;12.292;2023-08-17T14:49:05;22.40;99.90
36458;DHT22;22480;50.546;12.292;2023-08-17T14:51:40;23.10;99.90
36458;DHT22;22480;50.546;12.292;2023-08-17T14:54:07;23.20;99.90
36458;DHT22;22480;50.546;12.292;2023-08-17T14:56:33;23.40;99.90
36458;DHT22;22480;50.546;12.292;2023-08-17T14:58:59;23.60;99.90
36458;DHT22;22480;50.546;12.292;2023-08-17T15:01:24;23.20;99.90
36458;DHT22;22480;50.546;12.292;2023-08-17T15:03:50;23.00;99.90
36458;DHT22;22480;50.546;12.292;2023-08-17T15:06:16;22.80;99.90
36458;DHT22;22480;50.546;12.292;2023-08-17T15:08:42;22.90;99.90
36458;DHT22;22480;50.546;12.292;2023-08-17T15:11:07;22.80;99.90
36458;DHT22;22480;50.546;12.292;2023-08-17T15:13:33;22.60;99.90
36458;DHT22;22480;50.546;12.292;2023-08-17T15:15:59;22.50;99.90
36458;DHT22;22480;50.546;12.292;2023-08-17T15:18:24;22.30;99.90
36458;DHT22;22480;50.546;12.292;2023-08-17T15:20:50;22.20;99.90
36458;DHT22;22480;50.546;12.292;2023-08-17T15:23:16;22.00;99.90